Bookmark and Share
Track history (hours):
 

Bouzas

Last reported at 2014-Apr-19 07:30 UTC. Time now 2014-Apr-19 12:05 UTC.
Position N 35°57' W 005°45'.

Length 142 m; draft 5.9 m.

Type: Cargo ship. MMSI: 224029000.

NotesDate/timePositionNaut miles runAvg speedWind from/ knotsBaromVisibWave heightAir tempDewpointWater temp
2014-Apr-19 07:30N 35°57' W 005°45'1414.3
2014-Apr-19 06:33N 35°59' W 005°28'1514.7
2014-Apr-19 05:33N 36°02' W 005°10'23817.0
2014-Apr-18 15:33N 37°33' W 000°35'1211.6
2014-Apr-18 14:33N 37°42' W 000°27'2323.5
2014-Apr-18 13:33N 38°02' W 000°11'12117.1
2014-Apr-18 06:29N 39°46' E 001°08'1718.4
2014-Apr-18 05:33N 40°01' E 001°19'1918.6
2014-Apr-18 04:33N 40°18' E 001°29'1818.2
2014-Apr-18 03:33N 40°34' E 001°41'1919.0
2014-Apr-18 02:34N 40°50' E 001°54'1817.7
2014-Apr-18 01:33N 41°06' E 002°06'1615.6
2014-Apr-18 00:33N 41°20' E 002°12'6 0.7
2014-Apr-17 16:31N 41°15' E 002°13'1718.1
2014-Apr-17 15:33N 40°59' E 002°02'1919.2
2014-Apr-17 14:33N 40°42' E 001°50'1818.1
2014-Apr-17 13:33N 40°26' E 001°39'1918.8
2014-Apr-17 12:33N 40°10' E 001°27'1918.7
2014-Apr-17 11:33N 39°53' E 001°16'15719.1
2014-Apr-17 03:20N 37°38' W 000°26'24417.6
2014-Apr-16 13:32N 36°00' W 005°05'2021.1
2014-Apr-16 12:33N 35°57' W 005°30'  
2014-Apr-13 12:34N 32°06' W 010°49'34818.2
2014-Apr-12 17:30N 35°57' W 005°37'1516.0
2014-Apr-12 16:34N 36°03' W 005°19'24317.3
2014-Apr-12 02:32N 37°32' W 000°37'1919.2
2014-Apr-12 01:33N 37°47' W 000°23'13519.3
2014-Apr-11 18:34N 39°43' E 001°06'2019.7
2014-Apr-11 17:33N 40°00' E 001°18'2019.8
2014-Apr-11 16:33N 40°18' E 001°30'1919.3
2014-Apr-11 15:33N 40°34' E 001°43'1919.2
2014-Apr-11 14:33N 40°51' E 001°55'2019.6
2014-Apr-11 13:33N 41°08' E 002°09'1414.0
2014-Apr-11 12:32N 41°22' E 002°11'4 0.5
2014-Apr-11 03:23N 41°19' E 002°15'1517.9
2014-Apr-11 02:33N 41°06' E 002°06'1818.4
2014-Apr-11 01:33N 40°49' E 001°55'1716.8
2014-Apr-11 00:33N 40°34' E 001°45'1817.7
2014-Apr-10 23:33N 40°18' E 001°35'1717.3
2014-Apr-10 22:33N 40°03' E 001°24'1717.1
2014-Apr-10 21:33N 39°49' E 001°12'11711.7
2014-Apr-10 11:33N 38°07' W 000°03'1612.4
2014-Apr-10 10:18N 37°54' W 000°14'1212.5
2014-Apr-10 09:22N 37°44' W 000°21'1012.3
2014-Apr-10 08:33N 37°35' W 000°28'24116.0
2014-Apr-09 17:31N 36°01' W 005°05'1717.9
2014-Apr-09 16:34N 35°58' W 005°25'2017.8
2014-Apr-09 15:26N 35°54' W 005°50'  

Dump ship's entire track history

sailing weather and tide predictions

Bouzas — EAPC — position and weather